Hartford, Connecticut
Current Conditions -  °F | °C
As of 12:35 PM on Wednesday 26 Nov 2014 (Local Time) from KHFD Reporting Station
Light Snow Light Snow  
Wind Chill: -4°   Ceiling: 400
Heat Index:   Visibility: 0.75mi
Dew Point: -1°   Wind: 9mph
Humidity: 92%   Direction: 10°N
Pressure: 30.08"   Gusts: NA
Location:  41.76°N, 72.67°W
Report Text: KHFD 261735Z 01008KT 3/4SM -SN BR OVC004 01/M01 A3008 RMK AO2 PRESRR P0005 T00061006
Loading
Personal Weather Stations






























Interactive Weather Map New forecast layout! Learn more

10-Day Weather Forecast

Advertisements
Track Severe Weather on mobile